createdAt,value
2022-09-12T00:04:16.157Z,101300.78
2022-09-12T00:09:17.547Z,101302.59
2022-09-12T00:14:19.203Z,101299.13
2022-09-12T00:19:20.561Z,101289.59
2022-09-12T00:24:21.926Z,101286.13
2022-09-12T00:29:23.255Z,101281.00
2022-09-12T00:34:24.774Z,101283.56
2022-09-12T00:39:26.109Z,101269.75
2022-09-12T00:44:27.404Z,101268.88
2022-09-12T00:49:31.765Z,101262.84
2022-09-12T00:54:41.974Z,101255.09
2022-09-12T00:59:52.339Z,101255.16
2022-09-12T01:04:53.761Z,101249.13
2022-09-12T01:09:55.239Z,101261.19
2022-09-12T01:14:56.589Z,101246.50
2022-09-12T01:20:18.987Z,101252.59
2022-09-12T01:26:01.790Z,101259.53
2022-09-12T01:31:15.647Z,101261.31
2022-09-12T01:36:45.983Z,101251.81
2022-09-12T01:41:54.404Z,101246.66
2022-09-12T01:47:11.059Z,101251.81
2022-09-12T01:52:22.965Z,101232.81
2022-09-12T01:57:31.758Z,101239.75
2022-09-12T02:02:39.633Z,101223.28
2022-09-12T02:07:51.414Z,101218.97
2022-09-12T02:12:59.413Z,101212.06
2022-09-12T02:18:04.493Z,101206.91
2022-09-12T02:23:10.997Z,101211.22
2022-09-12T02:28:18.467Z,101207.75
2022-09-12T02:33:45.661Z,101201.72
2022-09-12T02:38:48.501Z,101198.25
2022-09-12T02:43:51.536Z,101205.22
2022-09-12T02:48:54.203Z,101187.94
2022-09-12T02:53:55.921Z,101196.59
2022-09-12T02:59:04.727Z,101195.69
2022-09-12T03:04:11.946Z,101188.78
2022-09-12T03:09:47.226Z,101190.50
2022-09-12T03:15:01.634Z,101187.91
2022-09-12T03:20:15.356Z,101182.75
2022-09-12T03:25:25.761Z,101191.44
2022-09-12T03:30:27.455Z,101188.84
2022-09-12T03:35:29.902Z,101186.25
2022-09-12T03:40:31.238Z,101182.78
2022-09-12T03:45:32.609Z,101181.91
2022-09-12T03:50:34.150Z,101189.69
2022-09-12T03:55:36.171Z,101175.00
2022-09-12T04:00:39.046Z,101178.47
2022-09-12T04:05:40.402Z,101166.38
2022-09-12T04:10:41.755Z,101178.47
2022-09-12T04:15:43.157Z,101170.69
2022-09-12T04:20:44.455Z,101172.44
2022-09-12T04:25:54.313Z,101168.09
2022-09-12T04:30:56.435Z,101163.81
2022-09-12T04:36:03.958Z,101151.69
2022-09-12T04:41:21.238Z,101151.69
2022-09-12T04:46:22.682Z,101156.84
2022-09-12T04:51:31.598Z,101148.25
2022-09-12T04:56:36.291Z,101134.41
2022-09-12T05:01:37.749Z,101134.41
2022-09-12T05:06:40.229Z,101133.53
2022-09-12T05:12:03.257Z,101138.72
2022-09-12T05:17:05.943Z,101133.53
2022-09-12T05:22:07.485Z,101122.31
2022-09-12T05:27:09.565Z,101141.28
2022-09-12T05:32:12.414Z,101139.56
2022-09-12T05:37:13.793Z,101141.28
2022-09-12T05:42:15.206Z,101136.97
2022-09-12T05:47:17.291Z,101113.59
2022-09-12T05:52:18.687Z,101146.41
2022-09-12T05:57:19.986Z,101145.50
2022-09-12T06:02:21.543Z,101157.56
2022-09-12T06:07:23.095Z,101151.44
2022-09-12T06:12:26.680Z,101147.16
2022-09-12T06:17:28.077Z,101161.75
2022-09-12T06:22:29.458Z,101119.41
2022-09-12T06:27:30.902Z,101159.06
2022-09-12T06:32:32.318Z,101157.25
2022-09-12T06:37:33.665Z,101146.81
2022-09-12T06:42:34.915Z,101152.72
2022-09-12T06:47:36.270Z,101145.69
2022-09-12T06:52:37.591Z,101158.47
2022-09-12T06:57:38.981Z,101157.47
2022-09-12T07:02:40.446Z,101157.25
2022-09-12T07:07:41.881Z,101157.13
2022-09-12T07:12:43.260Z,101160.44
2022-09-12T07:17:44.547Z,101160.25
2022-09-12T07:22:46.600Z,101161.59
2022-09-12T07:27:51.098Z,101151.97
2022-09-12T07:32:54.043Z,101158.69
2022-09-12T07:37:56.149Z,101144.81
2022-09-12T07:42:57.534Z,101143.53
2022-09-12T07:47:58.882Z,101148.38
2022-09-12T07:53:00.354Z,101152.63
2022-09-12T07:58:01.701Z,101150.13
2022-09-12T08:03:03.745Z,101149.94
2022-09-12T08:08:05.614Z,101142.72
2022-09-12T08:13:10.709Z,101157.97
2022-09-12T08:18:12.295Z,101134.41
2022-09-12T08:23:13.681Z,101174.03
2022-09-12T08:28:15.067Z,101157.59
2022-09-12T08:33:16.735Z,101154.59
2022-09-12T08:38:19.615Z,101163.50
2022-09-12T08:43:39.184Z,101134.41
2022-09-12T08:48:42.241Z,101153.94
2022-09-12T08:53:45.251Z,101142.56
2022-09-12T08:58:47.426Z,101143.22
2022-09-12T09:04:17.293Z,101163.53
2022-09-12T09:09:19.655Z,101155.94
2022-09-12T09:14:49.023Z,101147.09
2022-09-12T09:19:59.702Z,101142.88
2022-09-12T09:25:07.927Z,101152.03
2022-09-12T09:30:18.799Z,101149.56
2022-09-12T09:35:36.646Z,101142.41
2022-09-12T09:40:59.334Z,101137.81
2022-09-12T09:46:00.777Z,101126.53
2022-09-12T09:51:06.997Z,101123.63
2022-09-12T09:56:36.067Z,101119.00
2022-09-12T10:01:49.320Z,101117.47
2022-09-12T10:06:56.945Z,101123.78
2022-09-12T10:11:59.391Z,101108.63
2022-09-12T10:17:03.979Z,101097.53
2022-09-12T10:22:07.411Z,101097.25
2022-09-12T10:27:11.713Z,101097.81
2022-09-12T10:32:30.547Z,101077.00
2022-09-12T10:37:38.811Z,101075.06
2022-09-12T10:42:59.641Z,101079.75
2022-09-12T10:48:07.635Z,101072.09
2022-09-12T10:53:28.908Z,101068.41
2022-09-12T10:58:57.200Z,101069.66
2022-09-12T11:04:07.982Z,101062.91
2022-09-12T11:09:21.898Z,101066.78
2022-09-12T11:14:59.657Z,101043.31
2022-09-12T11:20:21.781Z,101050.88
2022-09-12T11:25:32.222Z,101041.75
2022-09-12T11:30:48.392Z,101043.38
2022-09-12T11:35:55.197Z,101034.91
2022-09-12T11:41:11.431Z,101015.25
2022-09-12T11:46:22.378Z,101021.19
2022-09-12T11:51:35.618Z,101016.44
2022-09-12T11:56:42.930Z,101018.28
2022-09-12T12:01:48.738Z,101019.13
2022-09-12T12:06:58.082Z,101011.53
2022-09-12T12:12:04.690Z,101004.44
2022-09-12T12:17:19.993Z,101003.97
2022-09-12T12:22:23.992Z,101004.44
2022-09-12T12:28:11.445Z,100985.00
2022-09-12T12:33:15.344Z,100954.75
2022-09-12T12:38:33.157Z,100979.78
2022-09-12T12:43:34.649Z,100973.09
2022-09-12T12:48:46.720Z,100963.84
2022-09-12T12:53:48.192Z,100966.41
2022-09-12T12:58:49.578Z,100958.13
2022-09-12T13:04:12.293Z,100951.97
2022-09-12T13:09:24.206Z,100946.94
2022-09-12T13:14:41.583Z,100948.38
2022-09-12T13:19:43.871Z,100919.81
2022-09-12T13:24:52.284Z,100915.63
2022-09-12T13:30:15.120Z,100925.09
2022-09-12T13:35:34.554Z,100925.00
2022-09-12T13:40:47.814Z,100914.50
2022-09-12T13:45:50.600Z,100921.06
2022-09-12T13:50:58.041Z,100885.09
2022-09-12T13:56:00.747Z,100906.56
2022-09-12T14:01:07.115Z,100903.31
2022-09-12T14:06:08.509Z,100899.94
2022-09-12T14:11:11.681Z,100895.28
2022-09-12T14:16:15.324Z,100886.75
2022-09-12T14:21:26.395Z,100883.41
2022-09-12T14:26:34.064Z,100864.88
2022-09-12T14:31:37.694Z,100861.38
2022-09-12T14:36:55.851Z,100852.63
2022-09-12T14:42:07.658Z,100849.38
2022-09-12T14:47:22.589Z,100858.09
2022-09-12T14:52:34.169Z,100837.69
2022-09-12T14:57:39.293Z,100831.94
2022-09-12T15:02:42.522Z,100835.81
2022-09-12T15:07:56.075Z,100821.53
2022-09-12T15:13:28.433Z,100823.84
2022-09-12T15:18:29.994Z,100809.81
2022-09-12T15:23:47.486Z,100832.03
2022-09-12T15:28:50.524Z,100816.72
2022-09-12T15:33:52.670Z,100813.84
2022-09-12T15:38:54.866Z,100807.75
2022-09-12T15:43:56.687Z,100804.59
2022-09-12T15:48:58.102Z,100803.19
2022-09-12T15:54:02.171Z,100787.91
2022-09-12T15:59:03.539Z,100786.13
2022-09-12T16:04:20.947Z,100779.63
2022-09-12T16:09:23.894Z,100753.41
2022-09-12T16:14:25.222Z,100759.22
2022-09-12T16:19:26.579Z,100759.63
2022-09-12T16:24:27.934Z,100741.84
2022-09-12T16:29:29.331Z,100747.13
2022-09-12T16:34:30.697Z,100752.84
2022-09-12T16:39:32.163Z,100747.34
2022-09-12T16:44:33.626Z,100740.16
2022-09-12T16:49:34.953Z,100737.91
2022-09-12T16:54:36.306Z,100729.81
2022-09-12T16:59:37.702Z,100725.94
2022-09-12T17:04:39.711Z,100726.50
2022-09-12T17:09:44.148Z,100729.03
2022-09-12T17:14:47.580Z,100716.25
2022-09-12T17:19:48.983Z,100728.72
2022-09-12T17:24:50.361Z,100717.31
2022-09-12T17:29:51.769Z,100714.91
2022-09-12T17:34:53.178Z,100713.34
2022-09-12T17:39:54.723Z,100700.00
2022-09-12T17:44:58.213Z,100706.66
2022-09-12T17:50:20.737Z,100706.22
2022-09-12T17:55:21.429Z,100699.06
2022-09-12T18:00:42.860Z,100700.31
2022-09-12T18:05:55.389Z,100697.25
2022-09-12T18:11:05.210Z,100696.59
2022-09-12T18:16:09.532Z,100701.31
2022-09-12T18:21:12.110Z,100704.31
2022-09-12T18:26:14.233Z,100694.28
2022-09-12T18:31:17.558Z,100696.34
2022-09-12T18:36:19.519Z,100703.03
2022-09-12T18:41:22.653Z,100698.97
2022-09-12T18:46:24.977Z,100695.19
2022-09-12T18:51:31.820Z,100696.44
2022-09-12T18:56:35.892Z,100675.81
2022-09-12T19:01:38.622Z,100679.69
2022-09-12T19:06:42.620Z,100672.78
2022-09-12T19:11:49.510Z,100655.13
2022-09-12T19:16:52.093Z,100660.31
2022-09-12T19:21:53.827Z,100672.94
2022-09-12T19:26:55.213Z,100676.66
2022-09-12T19:31:57.310Z,100678.00
2022-09-12T19:36:59.385Z,100666.69
2022-09-12T19:42:00.799Z,100664.59
2022-09-12T19:47:02.196Z,100670.22
2022-09-12T19:52:03.690Z,100659.31
2022-09-12T19:57:05.112Z,100669.75
2022-09-12T20:02:06.546Z,100666.41
2022-09-12T20:07:07.969Z,100659.22
2022-09-12T20:12:09.302Z,100675.09
2022-09-12T20:17:10.704Z,100668.44
2022-09-12T20:22:12.085Z,100656.41
2022-09-12T20:27:13.453Z,100646.34
2022-09-12T20:32:14.802Z,100639.16
2022-09-12T20:37:16.364Z,100634.13
2022-09-12T20:42:17.911Z,100625.63
2022-09-12T20:47:19.507Z,100625.03
2022-09-12T20:52:20.950Z,100600.66
2022-09-12T20:57:23.134Z,100596.63
2022-09-12T21:02:24.686Z,100598.31
2022-09-12T21:07:26.240Z,100584.47
2022-09-12T21:12:28.111Z,100593.16
2022-09-12T21:17:29.455Z,100585.28
2022-09-12T21:22:30.884Z,100587.41
2022-09-12T21:27:32.294Z,100586.59
2022-09-12T21:32:36.816Z,100576.50
2022-09-12T21:37:38.176Z,100590.69
2022-09-12T21:42:39.544Z,100593.25
2022-09-12T21:47:40.891Z,100597.16
2022-09-12T21:52:42.574Z,100585.13
2022-09-12T21:57:44.046Z,100584.72
2022-09-12T22:02:46.845Z,100579.75
2022-09-12T22:07:48.362Z,100600.97
2022-09-12T22:12:49.692Z,100580.84
2022-09-12T22:17:51.405Z,100607.50
2022-09-12T22:23:11.510Z,100594.19
2022-09-12T22:28:13.698Z,100612.44
2022-09-12T22:33:15.399Z,100606.47
2022-09-12T22:38:16.766Z,100604.09
2022-09-12T22:43:18.108Z,100606.72
2022-09-12T22:48:19.465Z,100610.28
2022-09-12T22:53:20.821Z,100564.28
2022-09-12T22:58:22.263Z,100595.28
2022-09-12T23:03:23.717Z,100623.50
2022-09-12T23:08:29.406Z,100627.06
2022-09-12T23:13:31.051Z,100626.22
2022-09-12T23:18:35.937Z,100618.34
2022-09-12T23:23:38.377Z,100603.72
2022-09-12T23:28:41.301Z,100591.47
2022-09-12T23:33:44.107Z,100575.94
2022-09-12T23:38:46.688Z,100567.41
2022-09-12T23:43:48.326Z,100583.94
2022-09-12T23:48:50.121Z,100585.41
2022-09-12T23:53:51.550Z,100568.28
2022-09-12T23:58:52.950Z,100547.28
